Nearby METAR Reports

 

ENCN - Kristiansand/Kje, Norway
Distance from station: N 17km
Ultima actualizare: 02/06/2023 17:20
Senin
Senin
 Vânt dela SSV
Vântul: SSV 20 km/h
Temperatura: 14°C
Punct de rouă: 4°C
Umiditate: 51%
Barometru: 1025 hPa
Sumar: Senin
Visibility: greater than 10 km
2023/06/02 15:20 ENCN 021520Z 20011KT CAVOK 14/04 Q1025
EKSN - Sindal Airport, Denmark
Distance from station: ESE 145km
Ultima actualizare: 30/12/2021 14:50
NOT Current
Mist, In mare parte înorat
Mist, In mare parte înorat
 Vânt dela SV
Vântul: SV 26 km/h
Temperatura: 7°C
Wind Chill: 3°C
Punct de rouă: 7°C
Umiditate: 100%
Barometru: 999 hPa
Sumar: Mist
Clouds: In mare parte înorat
Visibility: 5 km
Cloud details: Parţial înorat 183 m
In mare parte înorat 244 m
2021/12/30 13:50 EKSN 301350Z 23014KT 4500 BR SCT006 BKN008 07/07 Q0999
 
EKYT - Alborg, Denmark
Distance from station: SE 153km
Ultima actualizare: 02/06/2023 17:20
Senin
Senin
 Vânt dela NV
Vântul: NV 13 km/h
Temperatura: 17°C
Punct de rouă: -1°C
Umiditate: 30%
Barometru: 1025 hPa
Clouds: Senin
Visibility: 10 km
2023/06/02 15:20 EKYT 021520Z AUTO 32007KT 290V350 9999 NCD 17/M01 Q1025
ENSN - Skien/Geiterygge, Norway
Distance from station: NE 153km
Ultima actualizare: 09/11/2015 09:50
NOT Current
Senin
Senin
 Vânt dela SSV
Vântul: SSV 19 km/h, Vânt în rafale: 41 km/h
Temperatura: 7°C
Wind Chill: 4°C
Punct de rouă: 3°C
Umiditate: 76%
Barometru: 1000 hPa
Sumar: Senin
Visibility: greater than 10 km
2015/11/09 08:50 ENSN 090850Z 20010G22KT 150V240 CAVOK 07/03 Q1000
 
ENZV - Stavanger/Sola(A, Norway
Distance from station: NV 166km
Ultima actualizare: 02/06/2023 17:20
Senin
Senin
 Vânt dela VNV
Vântul: VNV 20 km/h
Temperatura: 12°C
Punct de rouă: 5°C
Umiditate: 63%
Barometru: 1026 hPa
Sumar: Senin
Visibility: greater than 10 km
2023/06/02 15:20 ENZV 021520Z 29011KT CAVOK 12/05 Q1026
ENNO - Notodden, Norway
Distance from station: NNE 182km
Ultima actualizare: 02/06/2023 15:20
NOT Current
Senin
Senin
 Vânt dela ESE
Vântul: ESE 19 km/h
Temperatura: 18°C
Punct de rouă: 3°C
Umiditate: 37%
Barometru: 1022 hPa
Sumar: Senin
Visibility: greater than 10 km
2023/06/02 13:20 ENNO 021320Z 12010KT CAVOK 18/03 Q1022
 
ENTO - Torp (civ/Nor-Af, Norway
Distance from station: NE 183km
Ultima actualizare: 02/06/2023 17:20
Senin
Senin
 Vânt dela S
Vântul: S 20 km/h
Temperatura: 13°C
Punct de rouă: 0°C
Umiditate: 41%
Barometru: 1024 hPa
Sumar: Senin
Visibility: greater than 10 km
2023/06/02 15:20 ENTO 021520Z 18011KT CAVOK 13/00 Q1024 NOSIG
EKKA - Karup (dan-Afb), Denmark
Distance from station: SSE 209km
Ultima actualizare: 02/06/2023 17:20
Senin
Senin
 Vânt dela N
Vântul: N 11 km/h
Temperatura: 18°C
Punct de rouă: 1°C
Umiditate: 32%
Barometru: 1024 hPa
Clouds: Senin
Visibility: 10 km
2023/06/02 15:20 EKKA 021520Z AUTO 36006KT 280V050 9999 NCD 18/01 Q1024
 
ENHD - Haugesund/Karmoy, Norway
Distance from station: NV 216km
Ultima actualizare: 02/06/2023 17:20
Senin
Senin
 Vânt dela NV
Vântul: NV 15 km/h
Temperatura: 12°C
Punct de rouă: 6°C
Umiditate: 67%
Barometru: 1026 hPa
Sumar: Senin
Visibility: greater than 10 km
2023/06/02 15:20 ENHD 021520Z 32008KT 280V340 CAVOK 12/06 Q1026
ENRY - Rygge (nor-Afb), Norway
Distance from station: NE 216km
Ultima actualizare: 02/06/2023 17:20
Senin
Senin
 Vânt dela SV
Vântul: SV 19 km/h
Temperatura: 15°C
Punct de rouă: -1°C
Umiditate: 34%
Barometru: 1023 hPa
Sumar: Senin
Visibility: greater than 10 km
2023/06/02 15:20 ENRY 021520Z 23010KT CAVOK 15/M01 Q1023
 
ESGP - Goteborg/Save (a, Sweden
Distance from station: E 230km
Ultima actualizare: 02/06/2023 17:20
Senin
Senin
 Vânt dela VNV
Vântul: VNV 13 km/h
Temperatura: 15°C
Punct de rouă: 2°C
Umiditate: 42%
Barometru: 1024 hPa
Sumar: Senin
Visibility: greater than 10 km
2023/06/02 15:20 ESGP 021520Z 29007KT 260V340 CAVOK 15/02 Q1024
EKVJ - Stauning Airport, Denmark
Distance from station: S 233km
Ultima actualizare: 02/06/2023 12:50
NOT Current
Senin
Senin
 Vânt dela ENE
Vântul: ENE 6 km/h
Sumar: Senin
Visibility: greater than 10 km
2023/06/02 10:50 EKVJ 021050Z 06003KT CAVOK 18/// Q1024
 
ENSO - Stord/Soerstokke, Norway
Distance from station: NV 246km
Ultima actualizare: 02/06/2023 14:50
NOT Current
Senin
Senin
 Vânt dela NNV
Vântul: NNV 19 km/h
Temperatura: 14°C
Punct de rouă: 3°C
Umiditate: 48%
Barometru: 1025 hPa
Sumar: Senin
Visibility: greater than 10 km
2023/06/02 12:50 ENSO 021250Z 33010KT CAVOK 14/03 Q1025
EKAH - Tirstrup (civ/Mi, Denmark
Distance from station: SE 252km
Ultima actualizare: 02/06/2023 17:20
Senin
Senin
 Vânt dela N
Vântul: N 13 km/h
Temperatura: 17°C
Punct de rouă: 0°C
Umiditate: 32%
Barometru: 1025 hPa
Clouds: Senin
Visibility: 10 km
2023/06/02 15:20 EKAH 021520Z AUTO 35007KT 320V040 9999 NCD 17/00 Q1025
 
ESGT - Trollhattan (pvt, Sweden
Distance from station: E 255km
Ultima actualizare: 02/06/2023 17:20
Senin
Senin
 Vânt dela NNE
Vântul: NNE 9 km/h
Temperatura: 16°C
Punct de rouă: 0°C
Umiditate: 34%
Barometru: 1023 hPa
Sumar: Senin
Visibility: greater than 10 km
2023/06/02 15:20 ESGT 021520Z 03005KT 320V090 CAVOK 16/M00 Q1023
ESGG - Goteborg/Landvet, Sweden
Distance from station: E 257km
Ultima actualizare: 02/06/2023 17:20
Senin
Senin
 Vânt dela VNV
Vântul: VNV 19 km/h
Temperatura: 13°C
Punct de rouă: 2°C
Umiditate: 47%
Barometru: 1023 hPa
Sumar: Senin
Visibility: greater than 10 km
2023/06/02 15:20 ESGG 021520Z 29010KT 260V320 CAVOK 13/02 Q1023
 
EKBI - Billund Airport, Denmark
Distance from station: SSE 269km
Ultima actualizare: 02/06/2023 17:20
In mare parte înorat
In mare parte înorat
 Vânt dela ESE
Vântul: ESE 7 km/h
Temperatura: 17°C
Punct de rouă: 2°C
Umiditate: 37%
Barometru: 1024 hPa
Clouds: In mare parte înorat
Visibility: 10 km
Cloud details: In mare parte înorat 2286 m
2023/06/02 15:20 EKBI 021520Z AUTO 11004KT 010V170 9999 BKN075/// 17/02 Q1024
EKHN - Horns Rev B Heli, Denmark
Distance from station: S 274km
Ultima actualizare: 09/08/2016 14:20
NOT Current
Few Clouds
Few Clouds
 Vânt dela VNV
Vântul: VNV 50 km/h, Vânt în rafale: 72 km/h
Temperatura: 14°C
Punct de rouă: 10°C
Umiditate: 77%
Barometru: 1018 hPa
Clouds: Few Clouds
Visibility: 10 km
Cloud details: Few Clouds 1158 m
Few Clouds 2438 m
2016/08/09 12:20 EKHN 091220Z AUTO 29027G39KT 270V340 9999NDV FEW038/// FEW080/// 14/10 Q1018
 
ESIB - Satenas (swe-Afb, Sweden
Distance from station: E 277km
Ultima actualizare: 02/06/2023 17:20
Senin
Senin
 Vânt dela N
Vântul: N 6 km/h
Temperatura: 14°C
Punct de rouă: -1°C
Umiditate: 36%
Barometru: 1023 hPa
Sumar: Senin
Visibility: greater than 10 km
2023/06/02 15:20 ESIB 021520Z 35003KT 290V080 CAVOK 14/M01 Q1023
EKHR - Horns Rev B Heli, Denmark
Distance from station: S 282km
Ultima actualizare: 04/10/2016 06:20
NOT Current
Senin
Senin
 Vânt dela E
Vântul: E 4 km/h
Temperatura: 11°C
Punct de rouă: -49°C
Umiditate: 0%
Barometru: 1038 hPa
Clouds: Senin
Visibility: 10 km
2016/10/04 04:20 EKHR 040420Z AUTO 08002KT 9999NDV NCD 11/M49 Q1038